Time;durP1;ratioP1;P1;durP2;ratioP2;P2;SDS_P1;SDS_P2;PMS_P1;PMS_P2;Temp;Humidity;BMP_temperature;BMP_pressure;BME280_temperature;BME280_humidity;BME280_pressure;Samples;Min_cycle;Max_cycle;Signal;HPM_P1;HPM_P2
2024/01/04 00:00:29;;;;;;;9.88;2.40;;;;;;;10.10;100.00;99652.66;5266611;28;20492;-75
2024/01/04 00:03:00;;;;;;;15.35;4.15;;;;;;;10.17;100.00;99655.38;5268950;28;20024;-75
2024/01/04 00:05:30;;;;;;;12.05;2.80;;;;;;;10.17;100.00;99662.59;5270113;28;20034;-75
2024/01/04 00:08:01;;;;;;;15.48;3.40;;;;;;;10.16;100.00;99671.66;5272252;28;20070;-75
2024/01/04 00:10:31;;;;;;;16.55;3.10;;;;;;;10.19;100.00;99677.47;5268641;28;20023;-75
2024/01/04 00:13:02;;;;;;;13.85;3.03;;;;;;;10.14;100.00;99682.59;5265073;28;20025;-75
2024/01/04 00:15:32;;;;;;;14.70;3.53;;;;;;;10.13;100.00;99692.44;5270601;28;20028;-75
2024/01/04 00:18:03;;;;;;;17.13;3.45;;;;;;;10.18;100.00;99688.38;5267693;28;20127;-75
2024/01/04 00:20:34;;;;;;;21.15;4.00;;;;;;;10.25;100.00;99700.88;5274188;28;20059;-75
2024/01/04 00:23:04;;;;;;;13.48;3.00;;;;;;;10.21;100.00;99704.09;5269851;28;20083;-75
2024/01/04 00:25:35;;;;;;;12.18;3.42;;;;;;;10.23;100.00;99712.75;5273762;28;20512;-75
2024/01/04 00:28:05;;;;;;;17.73;2.65;;;;;;;10.26;100.00;99720.44;5270671;28;20481;-75
2024/01/04 00:30:36;;;;;;;19.25;2.60;;;;;;;10.26;100.00;99715.09;5271124;28;20032;-75
2024/01/04 00:33:07;;;;;;;17.42;2.83;;;;;;;10.34;100.00;99728.34;5270496;28;20035;-75
2024/01/04 00:35:37;;;;;;;10.73;3.33;;;;;;;10.30;100.00;99732.47;5267048;28;20088;-75
2024/01/04 00:38:08;;;;;;;16.42;2.78;;;;;;;10.33;100.00;99732.06;5275197;28;20107;-75
2024/01/04 00:40:39;;;;;;;13.25;2.50;;;;;;;10.34;100.00;99739.94;5275959;28;20015;-75
2024/01/04 00:43:09;;;;;;;9.23;2.35;;;;;;;10.33;100.00;99742.78;5278035;28;20508;-75
2024/01/04 00:45:40;;;;;;;8.48;2.75;;;;;;;10.31;100.00;99744.84;5277831;28;20035;-75
2024/01/04 00:48:10;;;;;;;11.07;2.75;;;;;;;10.32;100.00;99752.66;5266468;28;20648;-75
2024/01/04 00:50:42;;;;;;;15.02;3.15;;;;;;;10.37;100.00;99757.47;5273318;28;20028;-75
2024/01/04 00:53:12;;;;;;;19.50;2.95;;;;;;;10.38;100.00;99759.94;5272490;28;20051;-75
2024/01/04 00:55:43;;;;;;;18.67;2.55;;;;;;;10.38;100.00;99761.81;5274232;28;20032;-75
2024/01/04 00:58:13;;;;;;;13.57;3.13;;;;;;;10.40;100.00;99765.13;5273076;28;20027;-75
2024/01/04 01:00:44;;;;;;;22.58;3.17;;;;;;;10.37;100.00;99771.69;5272059;28;20020;-75
2024/01/04 01:03:14;;;;;;;8.98;2.97;;;;;;;10.37;100.00;99778.91;5264549;28;20036;-75
2024/01/04 01:05:45;;;;;;;17.85;3.15;;;;;;;10.38;100.00;99789.44;5275275;27;20026;-75
2024/01/04 01:08:16;;;;;;;14.13;3.03;;;;;;;10.36;100.00;99790.66;5279009;28;20068;-75
2024/01/04 01:10:46;;;;;;;15.05;3.78;;;;;;;10.30;100.00;99791.44;5269528;28;20024;-75
2024/01/04 01:13:20;;;;;;;16.95;3.63;;;;;;;10.35;100.00;99795.19;5272837;28;20392;-75
2024/01/04 01:15:50;;;;;;;17.55;3.70;;;;;;;10.27;100.00;99800.66;5275259;27;20024;-75
2024/01/04 01:18:21;;;;;;;17.30;3.35;;;;;;;10.31;100.00;99806.50;5273921;28;20028;-75
2024/01/04 01:20:51;;;;;;;17.75;3.17;;;;;;;10.36;100.00;99812.94;5267612;28;20024;-75
2024/01/04 01:23:22;;;;;;;12.40;2.75;;;;;;;10.37;100.00;99811.09;5274361;28;20092;-75
2024/01/04 01:25:52;;;;;;;12.05;3.08;;;;;;;10.35;100.00;99810.47;5273926;27;20500;-75
2024/01/04 01:28:23;;;;;;;21.25;3.95;;;;;;;10.36;100.00;99825.53;5276495;28;20027;-75
2024/01/04 01:30:53;;;;;;;20.00;3.28;;;;;;;10.39;100.00;99822.44;5247042;28;20024;-75
2024/01/04 01:33:24;;;;;;;15.57;2.92;;;;;;;10.33;100.00;99821.34;5271377;28;20371;-75
2024/01/04 01:35:55;;;;;;;13.90;2.92;;;;;;;10.32;100.00;99830.41;5269836;28;20011;-75
2024/01/04 01:38:25;;;;;;;9.68;2.33;;;;;;;10.28;100.00;99830.97;5271384;28;20031;-75
2024/01/04 01:40:57;;;;;;;17.60;4.20;;;;;;;10.25;100.00;99837.56;5270606;28;20016;-75
2024/01/04 01:43:27;;;;;;;13.43;3.28;;;;;;;10.25;100.00;99842.94;5270103;28;20039;-76
2024/01/04 01:45:58;;;;;;;10.68;3.72;;;;;;;10.23;100.00;99849.44;5269807;28;20043;-75
2024/01/04 01:48:28;;;;;;;14.30;3.35;;;;;;;10.20;100.00;99845.31;5270514;28;20027;-75
2024/01/04 01:50:59;;;;;;;8.85;3.47;;;;;;;10.18;100.00;99850.00;5271368;28;20052;-75
2024/01/04 01:53:30;;;;;;;9.63;3.25;;;;;;;10.19;100.00;99862.41;5273874;28;20027;-75
2024/01/04 01:56:01;;;;;;;13.85;3.05;;;;;;;10.11;100.00;99867.88;5265972;28;20031;-75
2024/01/04 01:58:31;;;;;;;13.65;2.67;;;;;;;10.09;100.00;99864.53;5267249;28;20019;-75
2024/01/04 02:01:02;;;;;;;11.85;2.97;;;;;;;10.00;100.00;99879.06;5265959;28;20019;-75
2024/01/04 02:03:33;;;;;;;10.32;2.90;;;;;;;9.95;100.00;99879.63;5273323;28;20021;-76
2024/01/04 02:06:03;;;;;;;10.02;2.97;;;;;;;9.94;100.00;99880.66;5268355;28;20035;-76
2024/01/04 02:08:34;;;;;;;5.63;1.95;;;;;;;9.86;100.00;99891.44;5270102;28;20039;-76
2024/01/04 02:11:05;;;;;;;15.88;3.60;;;;;;;9.85;100.00;99887.94;5266507;28;20096;-75
2024/01/04 02:13:35;;;;;;;10.75;2.40;;;;;;;9.87;100.00;99890.44;5275463;28;20054;-76
2024/01/04 02:16:06;;;;;;;11.05;2.35;;;;;;;9.85;100.00;99906.69;5267417;28;20035;-77
2024/01/04 02:18:36;;;;;;;7.60;1.83;;;;;;;9.83;100.00;99910.56;5273753;28;20093;-77
2024/01/04 02:21:09;;;;;;;5.53;1.80;;;;;;;9.79;100.00;99914.66;5269011;28;20023;-77
2024/01/04 02:23:39;;;;;;;5.30;1.45;;;;;;;9.75;100.00;99919.53;5267831;28;20019;-77
2024/01/04 02:26:10;;;;;;;7.30;1.63;;;;;;;9.75;100.00;99922.22;5272794;28;20027;-77
2024/01/04 02:28:40;;;;;;;5.90;1.67;;;;;;;9.73;100.00;99923.38;5272170;27;20648;-77
2024/01/04 02:31:11;;;;;;;7.38;1.60;;;;;;;9.66;100.00;99927.81;5266296;28;20497;-77
2024/01/04 02:33:41;;;;;;;5.95;1.77;;;;;;;9.63;100.00;99930.84;5271633;28;20072;-77
2024/01/04 02:36:12;;;;;;;3.80;0.90;;;;;;;9.54;100.00;99936.31;5272116;28;20103;-77
2024/01/04 02:38:42;;;;;;;1.42;0.57;;;;;;;9.53;100.00;99947.19;5273185;27;20442;-77
2024/01/04 02:41:13;;;;;;;2.75;0.60;;;;;;;9.47;100.00;99946.06;5273110;28;20016;-77
2024/01/04 02:43:43;;;;;;;5.20;0.85;;;;;;;9.49;100.00;99952.09;5275087;28;20138;-77
2024/01/04 02:46:14;;;;;;;1.08;0.82;;;;;;;9.41;100.00;99954.00;5268661;28;20028;-77
2024/01/04 02:48:44;;;;;;;1.92;0.63;;;;;;;9.32;100.00;99959.41;5269246;28;20103;-77
2024/01/04 02:51:15;;;;;;;4.10;1.00;;;;;;;9.28;100.00;99955.41;5270386;28;20405;-77
2024/01/04 02:53:46;;;;;;;0.82;0.45;;;;;;;9.20;100.00;99960.84;5273027;28;20489;-77
2024/01/04 02:56:16;;;;;;;1.40;0.73;;;;;;;9.25;100.00;99961.16;5269482;28;20031;-77
2024/01/04 02:58:47;;;;;;;2.70;0.70;;;;;;;9.17;100.00;99965.72;5267022;28;20027;-77
2024/01/04 03:01:27;;;;;;;1.30;0.70;;;;;;;9.16;100.00;99969.41;5271318;28;20142;-77
2024/01/04 03:03:57;;;;;;;3.67;0.70;;;;;;;9.15;100.00;99970.44;5247443;28;20507;-77
2024/01/04 03:06:30;;;;;;;5.45;0.80;;;;;;;9.14;100.00;99971.44;5273096;28;20034;-77
2024/01/04 03:09:00;;;;;;;2.75;0.82;;;;;;;9.12;100.00;99979.63;5269983;28;20085;-77
2024/01/04 03:11:31;;;;;;;2.67;0.70;;;;;;;9.12;100.00;99979.63;5273394;28;20408;-77
2024/01/04 03:14:02;;;;;;;3.78;0.95;;;;;;;9.10;100.00;99978.16;5268367;28;20024;-77
2024/01/04 03:16:33;;;;;;;3.53;1.00;;;;;;;9.11;100.00;99987.84;5264467;28;20031;-77
2024/01/04 03:19:04;;;;;;;4.32;1.55;;;;;;;9.11;100.00;99998.53;5269129;28;20382;-77
2024/01/04 03:21:34;;;;;;;4.47;1.67;;;;;;;9.14;100.00;99998.22;5270861;28;20031;-77
2024/01/04 03:24:05;;;;;;;4.35;1.55;;;;;;;9.08;100.00;99994.38;5270047;28;20027;-77
2024/01/04 03:26:35;;;;;;;7.25;1.83;;;;;;;9.13;100.00;100013.41;5273922;28;20028;-77
2024/01/04 03:29:07;;;;;;;6.53;2.25;;;;;;;9.14;100.00;100011.59;5270609;28;20401;-77
2024/01/04 03:31:41;;;;;;;5.97;2.00;;;;;;;9.14;100.00;100015.09;5270814;28;20020;-76
2024/01/04 03:34:14;;;;;;;9.85;3.75;;;;;;;9.16;100.00;100001.53;5271104;28;20053;-77
2024/01/04 03:36:45;;;;;;;9.00;2.67;;;;;;;9.24;100.00;100017.53;5270959;27;20117;-77
2024/01/04 03:39:15;;;;;;;5.95;2.70;;;;;;;9.26;100.00;100016.34;5273509;28;20087;-77
2024/01/04 03:41:46;;;;;;;8.98;2.70;;;;;;;9.27;100.00;100025.19;5263538;28;20031;-77
2024/01/04 03:44:16;;;;;;;6.97;3.20;;;;;;;9.31;100.00;100024.66;5267086;28;20101;-77
2024/01/04 03:46:47;;;;;;;8.30;3.00;;;;;;;9.29;100.00;100026.69;5272840;28;20019;-77
2024/01/04 03:49:17;;;;;;;10.07;3.65;;;;;;;9.26;100.00;100026.22;5270287;28;20032;-77
2024/01/04 03:51:48;;;;;;;6.60;2.67;;;;;;;9.17;100.00;100014.72;5271203;28;20465;-77
2024/01/04 03:54:18;;;;;;;5.45;2.47;;;;;;;9.12;100.00;100009.06;5266747;28;20028;-77
2024/01/04 03:56:49;;;;;;;6.63;2.90;;;;;;;9.12;100.00;100021.63;5270886;28;20023;-77
2024/01/04 03:59:20;;;;;;;5.90;2.95;;;;;;;9.11;100.00;100022.63;5278432;28;20476;-77
2024/01/04 04:01:50;;;;;;;7.63;3.00;;;;;;;9.08;100.00;100026.47;5275703;27;20044;-76
2024/01/04 04:04:21;;;;;;;6.68;3.35;;;;;;;9.12;100.00;100022.44;5271755;28;20027;-77
2024/01/04 04:06:51;;;;;;;8.15;2.80;;;;;;;9.15;100.00;100021.28;5272543;28;20023;-77
2024/01/04 04:09:21;;;;;;;12.00;3.25;;;;;;;9.16;100.00;100022.94;5276913;28;20024;-77
2024/01/04 04:11:52;;;;;;;11.68;2.83;;;;;;;9.16;100.00;100030.97;5276391;28;20478;-77
2024/01/04 04:14:22;;;;;;;7.63;2.80;;;;;;;9.17;100.00;100035.28;5272737;28;20061;-77
2024/01/04 04:16:53;;;;;;;10.88;2.90;;;;;;;9.23;100.00;100029.22;5273687;27;20373;-79
2024/01/04 04:19:23;;;;;;;11.43;2.53;;;;;;;9.19;100.00;100034.13;5274193;28;20024;-76
2024/01/04 04:21:54;;;;;;;10.90;2.40;;;;;;;9.26;100.00;100029.72;5272085;27;20107;-77
2024/01/04 04:24:25;;;;;;;6.13;2.35;;;;;;;9.26;100.00;100032.38;5273796;28;20027;-77
2024/01/04 04:26:55;;;;;;;9.60;2.05;;;;;;;9.32;100.00;100037.03;5272040;28;20141;-77
2024/01/04 04:29:26;;;;;;;7.13;2.10;;;;;;;9.33;100.00;100035.19;5274404;28;20035;-77
2024/01/04 04:31:56;;;;;;;10.55;3.10;;;;;;;9.41;100.00;100039.66;5271195;28;20106;-77
2024/01/04 04:34:30;;;;;;;9.88;2.22;;;;;;;9.38;100.00;100043.50;5273973;28;20039;-77
2024/01/04 04:37:00;;;;;;;17.05;2.20;;;;;;;9.39;100.00;100044.34;5266875;28;20056;-77
2024/01/04 04:39:31;;;;;;;64.88;26.80;;;;;;;9.36;100.00;100050.91;5272002;28;20047;-76
2024/01/04 04:42:01;;;;;;;16.70;3.08;;;;;;;9.36;100.00;100056.25;5271070;28;20366;-76
2024/01/04 04:44:32;;;;;;;20.63;10.02;;;;;;;9.41;100.00;100056.56;5274523;28;20020;-77
2024/01/04 04:47:02;;;;;;;21.33;5.38;;;;;;;9.43;100.00;100067.91;5271470;28;20653;-77
2024/01/04 04:49:33;;;;;;;23.58;9.25;;;;;;;9.52;100.00;100069.50;5272239;28;20032;-76
2024/01/04 04:52:04;;;;;;;12.32;3.33;;;;;;;9.52;100.00;100069.50;5273267;28;20020;-77
2024/01/04 04:54:35;;;;;;;16.88;4.55;;;;;;;9.60;100.00;100071.31;5273359;28;20419;-77
2024/01/04 04:57:05;;;;;;;17.65;4.15;;;;;;;9.64;100.00;100074.44;5269608;28;20024;-76
2024/01/04 04:59:36;;;;;;;15.02;3.95;;;;;;;9.67;100.00;100074.09;5276369;28;20500;-76
2024/01/04 05:02:06;;;;;;;9.13;2.17;;;;;;;9.62;100.00;100082.66;5272316;28;20032;-77
2024/01/04 05:04:37;;;;;;;25.83;10.23;;;;;;;9.71;100.00;100086.97;5274261;28;20376;-76
2024/01/04 05:07:07;;;;;;;14.00;5.22;;;;;;;9.76;100.00;100086.44;5273201;28;20073;-77
2024/01/04 05:09:38;;;;;;;10.05;3.20;;;;;;;9.72;100.00;100085.94;5272332;27;20031;-77
2024/01/04 05:12:08;;;;;;;9.93;2.42;;;;;;;9.71;100.00;100086.13;5275592;28;20034;-77
2024/01/04 05:14:39;;;;;;;18.85;6.97;;;;;;;9.65;100.00;100084.19;5277450;28;20020;-77
2024/01/04 05:17:09;;;;;;;12.85;4.38;;;;;;;9.71;100.00;100078.09;5273537;28;20016;-77
2024/01/04 05:19:43;;;;;;;14.13;2.30;;;;;;;9.70;100.00;100076.44;5266988;28;20504;-77
2024/01/04 05:22:14;;;;;;;37.95;15.27;;;;;;;9.63;100.00;100084.34;5271751;28;20093;-76
2024/01/04 05:24:44;;;;;;;101.35;49.47;;;;;;;9.63;100.00;100096.88;5272878;28;20023;-76
2024/01/04 05:27:15;;;;;;;212.20;89.97;;;;;;;9.64;100.00;100098.56;5273324;28;20077;-76
2024/01/04 05:29:45;;;;;;;457.80;173.15;;;;;;;9.65;100.00;100102.91;5271069;28;20028;-77
2024/01/04 05:32:16;;;;;;;296.52;116.43;;;;;;;9.57;100.00;100107.31;5275565;28;20423;-77
2024/01/04 05:34:46;;;;;;;98.10;51.58;;;;;;;9.51;100.00;100108.03;5273806;28;20107;-76
2024/01/04 05:37:17;;;;;;;15.63;7.20;;;;;;;9.50;100.00;100121.59;5273390;28;20388;-77
2024/01/04 05:39:47;;;;;;;13.52;4.85;;;;;;;9.48;100.00;100119.06;5273155;28;20028;-77
2024/01/04 05:42:18;;;;;;;17.83;5.40;;;;;;;9.48;100.00;100119.06;5268855;28;20156;-77
2024/01/04 05:44:48;;;;;;;14.30;4.18;;;;;;;9.52;100.00;100131.09;5272105;28;20047;-77
2024/01/04 05:47:19;;;;;;;9.40;1.77;;;;;;;9.58;100.00;100126.88;5273828;28;20024;-77
2024/01/04 05:49:49;;;;;;;5.88;2.05;;;;;;;9.55;100.00;100128.09;5270310;28;20032;-77
2024/01/04 05:52:20;;;;;;;7.10;2.97;;;;;;;9.59;100.00;100134.75;5272907;28;20535;-76
2024/01/04 05:54:50;;;;;;;8.30;2.80;;;;;;;9.54;100.00;100139.81;5273268;28;20016;-76
2024/01/04 05:57:26;;;;;;;7.65;2.10;;;;;;;9.52;100.00;100140.97;5271795;28;20392;-76
2024/01/04 05:59:57;;;;;;;8.85;2.25;;;;;;;9.51;100.00;100150.88;5272229;27;20077;-76
2024/01/04 06:02:27;;;;;;;8.63;2.15;;;;;;;9.51;100.00;100150.03;5276616;28;20476;-76
2024/01/04 06:04:58;;;;;;;12.38;3.00;;;;;;;9.55;100.00;100152.19;5270476;28;20028;-77
2024/01/04 06:07:28;;;;;;;7.70;2.17;;;;;;;9.51;100.00;100150.88;5274533;28;20384;-77
2024/01/04 06:09:59;;;;;;;9.20;2.33;;;;;;;9.47;100.00;100160.25;5269600;28;20047;-76
2024/01/04 06:12:30;;;;;;;12.57;2.10;;;;;;;9.51;100.00;100166.09;5273245;28;20172;-77
2024/01/04 06:15:03;;;;;;;11.88;2.20;;;;;;;9.59;100.00;100169.56;5270302;28;20059;-76
2024/01/04 06:17:33;;;;;;;15.60;1.90;;;;;;;9.60;100.00;100176.59;5275259;28;20032;-76
2024/01/04 06:20:04;;;;;;;15.90;2.17;;;;;;;9.55;100.00;100178.13;5268546;28;20047;-76
2024/01/04 06:22:34;;;;;;;9.05;1.73;;;;;;;9.57;100.00;100184.13;5270981;28;20039;-76
2024/01/04 06:25:06;;;;;;;7.45;1.85;;;;;;;9.59;100.00;100180.28;5270809;28;20024;-77
2024/01/04 06:27:36;;;;;;;18.33;5.68;;;;;;;9.52;100.00;100178.47;5274179;28;20082;-76
2024/01/04 06:30:07;;;;;;;140.07;57.20;;;;;;;9.50;100.00;100183.19;5268741;28;20152;-77
2024/01/04 06:32:38;;;;;;;25.67;8.05;;;;;;;9.53;100.00;100196.19;5267079;28;20058;-76
2024/01/04 06:35:08;;;;;;;100.05;32.72;;;;;;;9.50;100.00;100186.69;5268445;28;20028;-76
2024/01/04 06:37:39;;;;;;;43.30;21.40;;;;;;;9.53;100.00;100191.66;5272057;28;20034;-76
2024/01/04 06:40:10;;;;;;;11.60;2.75;;;;;;;9.56;100.00;100209.25;5268720;28;20469;-76
2024/01/04 06:42:42;;;;;;;10.48;3.10;;;;;;;9.63;100.00;100210.19;5270777;27;20028;-76
2024/01/04 06:45:12;;;;;;;8.30;2.60;;;;;;;9.69;100.00;100212.19;5269089;28;20077;-76
2024/01/04 06:47:43;;;;;;;16.70;4.63;;;;;;;9.70;100.00;100218.38;5266070;28;20473;-76
2024/01/04 06:50:13;;;;;;;14.32;3.20;;;;;;;9.71;100.00;100222.72;5269353;28;20040;-76
2024/01/04 06:52:44;;;;;;;10.05;2.35;;;;;;;9.72;100.00;100221.72;5251313;28;20481;-76
2024/01/04 06:55:15;;;;;;;8.55;2.78;;;;;;;9.84;100.00;100229.19;5266913;28;20028;-76
2024/01/04 06:57:46;;;;;;;8.75;2.55;;;;;;;9.80;100.00;100229.72;5264167;28;20431;-76
2024/01/04 07:00:17;;;;;;;11.73;2.30;;;;;;;9.86;100.00;100235.19;5266531;28;20016;-76
2024/01/04 07:02:47;;;;;;;11.75;2.90;;;;;;;9.87;100.00;100238.69;5268090;28;20024;-76
2024/01/04 07:05:18;;;;;;;12.10;2.90;;;;;;;9.90;100.00;100242.88;5266756;28;20028;-76
2024/01/04 07:07:48;;;;;;;17.23;2.83;;;;;;;9.89;100.00;100247.41;5264536;28;20047;-76
2024/01/04 07:10:19;;;;;;;10.25;2.90;;;;;;;9.89;100.00;100249.22;5266489;28;20028;-76
2024/01/04 07:12:50;;;;;;;12.73;2.88;;;;;;;9.96;100.00;100259.09;5265043;28;20024;-77
2024/01/04 07:15:21;;;;;;;8.85;2.55;;;;;;;9.97;100.00;100258.06;5249868;28;20485;-76
2024/01/04 07:17:52;;;;;;;14.88;2.50;;;;;;;9.97;100.00;100255.38;5243443;28;20454;-76
2024/01/04 07:20:22;;;;;;;7.03;2.42;;;;;;;9.94;100.00;100250.41;5270066;28;20016;-76
2024/01/04 07:22:53;;;;;;;10.70;5.80;;;;;;;9.93;100.00;100264.78;5268385;28;20447;-76
2024/01/04 07:25:23;;;;;;;21.25;4.07;;;;;;;9.82;100.00;100266.03;5269061;28;20016;-76
2024/01/04 07:27:54;;;;;;;33.58;18.83;;;;;;;9.85;100.00;100270.22;5270827;28;20035;-76
2024/01/04 07:30:24;;;;;;;17.13;4.90;;;;;;;9.91;100.00;100280.22;5267471;28;20486;-76
2024/01/04 07:32:55;;;;;;;17.40;5.40;;;;;;;9.89;100.00;100284.06;5260492;28;20604;-76
2024/01/04 07:35:25;;;;;;;19.13;6.03;;;;;;;9.96;100.00;100280.53;5266293;28;20027;-76
2024/01/04 07:37:58;;;;;;;12.25;4.60;;;;;;;9.94;100.00;100282.56;5270485;28;20028;-76
2024/01/04 07:40:29;;;;;;;14.35;4.00;;;;;;;9.96;100.00;100291.25;5272476;28;20031;-76
2024/01/04 07:43:00;;;;;;;14.43;5.40;;;;;;;9.99;100.00;100295.41;5268982;28;20028;-76
2024/01/04 07:45:31;;;;;;;16.83;5.32;;;;;;;10.00;100.00;100289.88;5275216;28;20071;-76
2024/01/04 07:48:02;;;;;;;11.85;4.95;;;;;;;9.98;100.00;100294.56;5269953;28;20039;-76
2024/01/04 07:50:33;;;;;;;16.00;4.47;;;;;;;10.01;100.00;100306.78;5271370;28;20039;-77
2024/01/04 07:53:03;;;;;;;23.52;5.18;;;;;;;10.08;100.00;100311.25;5272895;28;20508;-77
2024/01/04 07:55:34;;;;;;;14.82;5.38;;;;;;;10.08;100.00;100313.94;5265464;28;20686;-76
2024/01/04 07:58:05;;;;;;;15.43;4.30;;;;;;;10.10;100.00;100309.25;5268584;28;20043;-76
2024/01/04 08:00:36;;;;;;;14.30;4.20;;;;;;;10.02;100.00;100309.28;5271614;28;20493;-76
2024/01/04 08:03:06;;;;;;;13.15;4.95;;;;;;;9.95;100.00;100302.97;5270002;28;20047;-77
2024/01/04 08:05:37;;;;;;;14.18;4.93;;;;;;;10.03;100.00;100313.63;5272334;28;20023;-77
2024/01/04 08:08:08;;;;;;;22.85;10.35;;;;;;;10.10;100.00;100311.09;5266232;28;20027;-76
2024/01/04 08:10:39;;;;;;;17.85;4.00;;;;;;;10.12;100.00;100319.78;5247684;28;20137;-76
2024/01/04 08:13:10;;;;;;;24.58;3.92;;;;;;;10.09;100.00;100312.97;5271479;28;20032;-76
2024/01/04 08:15:41;;;;;;;21.45;5.55;;;;;;;10.18;100.00;100307.53;5274043;28;20037;-75
2024/01/04 08:18:11;;;;;;;8.85;3.90;;;;;;;10.15;100.00;100305.22;5270623;28;20024;-76
2024/01/04 08:20:42;;;;;;;20.75;5.28;;;;;;;10.20;100.00;100324.28;5270258;28;20474;-76
2024/01/04 08:23:13;;;;;;;23.65;4.63;;;;;;;10.10;100.00;100317.28;5247610;28;20024;-76
2024/01/04 08:25:44;;;;;;;15.02;3.35;;;;;;;10.14;100.00;100312.44;5266582;28;20020;-77
2024/01/04 08:28:15;;;;;;;21.23;6.20;;;;;;;10.14;100.00;100328.50;5267338;28;20028;-77
2024/01/04 08:30:47;;;;;;;18.75;4.15;;;;;;;10.09;100.00;100325.50;5266870;28;20483;-76
2024/01/04 08:33:17;;;;;;;20.85;4.40;;;;;;;10.11;100.00;100329.69;5269400;28;20093;-79
2024/01/04 08:35:48;;;;;;;20.98;3.13;;;;;;;10.03;100.00;100336.91;5266750;28;21430;-79
2024/01/04 08:38:18;;;;;;;19.80;4.75;;;;;;;10.00;100.00;100331.94;5268702;28;20481;-77
2024/01/04 08:40:49;;;;;;;24.75;6.68;;;;;;;10.07;100.00;100336.41;5268280;28;20027;-79
2024/01/04 08:43:20;;;;;;;17.52;3.20;;;;;;;10.05;100.00;100335.75;5270400;28;20032;-79
2024/01/04 08:45:51;;;;;;;18.95;3.65;;;;;;;10.07;100.00;100344.44;5268274;28;20035;-77
2024/01/04 08:48:21;;;;;;;32.80;14.10;;;;;;;10.06;100.00;100349.97;5266676;28;20028;-77
2024/01/04 08:50:52;;;;;;;255.48;79.78;;;;;;;10.02;100.00;100349.50;5262973;28;20481;-80
2024/01/04 08:53:22;;;;;;;37.92;9.77;;;;;;;9.97;100.00;100343.00;5268829;28;20350;-77
2024/01/04 08:55:53;;;;;;;24.25;6.00;;;;;;;9.91;100.00;100347.19;5264377;28;20035;-76
2024/01/04 08:58:23;;;;;;;30.88;14.55;;;;;;;9.92;100.00;100351.53;5267110;28;20481;-78
2024/01/04 09:00:54;;;;;;;41.47;19.73;;;;;;;9.95;100.00;100350.38;5263558;27;20072;-79
2024/01/04 09:03:24;;;;;;;41.35;17.33;;;;;;;9.91;100.00;100352.56;5275229;28;20028;-76
2024/01/04 09:05:56;;;;;;;40.80;17.95;;;;;;;9.89;100.00;100361.75;5263916;28;20077;-76
2024/01/04 09:08:26;;;;;;;17.65;6.20;;;;;;;9.85;100.00;100355.94;5270425;28;20519;-77
2024/01/04 09:10:57;;;;;;;30.33;7.05;;;;;;;9.88;100.00;100360.94;5267755;28;20024;-77
2024/01/04 09:13:27;;;;;;;27.85;5.10;;;;;;;9.89;100.00;100373.34;5268228;28;20574;-76
2024/01/04 09:15:59;;;;;;;28.48;6.95;;;;;;;9.90;100.00;100372.34;5268414;28;20023;-77
2024/01/04 09:18:29;;;;;;;22.27;5.07;;;;;;;9.88;100.00;100371.66;5268081;28;20023;-77
2024/01/04 09:21:00;;;;;;;35.08;10.18;;;;;;;9.89;100.00;100377.84;5268434;28;20023;-77
2024/01/04 09:23:31;;;;;;;30.85;6.65;;;;;;;9.86;100.00;100376.34;5265476;28;20028;-75
2024/01/04 09:26:08;;;;;;;24.17;6.90;;;;;;;9.82;100.00;100381.22;5263663;28;20049;-75
2024/01/04 09:28:39;;;;;;;30.83;8.38;;;;;;;9.90;100.00;100374.19;5266581;28;20023;-75
2024/01/04 09:31:09;;;;;;;34.30;8.70;;;;;;;9.89;100.00;100386.75;5258875;28;20024;-75
2024/01/04 09:33:40;;;;;;;28.20;5.07;;;;;;;9.85;100.00;100388.91;5268943;28;20107;-75
2024/01/04 09:36:11;;;;;;;41.50;6.43;;;;;;;9.86;100.00;100387.06;5263464;28;20038;-76
2024/01/04 09:38:41;;;;;;;48.72;7.38;;;;;;;9.80;100.00;100396.66;5262604;28;20028;-75
2024/01/04 09:41:25;;;;;;;36.17;6.05;;;;;;;9.74;100.00;100396.47;5262738;28;20652;-75
2024/01/04 09:44:01;;;;;;;28.90;5.40;;;;;;;9.78;100.00;100413.88;5261509;28;20024;-76
2024/01/04 09:46:39;;;;;;;46.50;5.03;;;;;;;9.75;100.00;100412.41;5261352;28;20053;-75
2024/01/04 09:49:13;;;;;;;31.08;4.80;;;;;;;9.79;100.00;100412.91;5264327;28;20116;-75
2024/01/04 09:51:44;;;;;;;25.92;5.18;;;;;;;9.84;100.00;100413.22;5259360;28;20028;-75
2024/01/04 09:54:16;;;;;;;33.92;5.45;;;;;;;9.86;100.00;100425.41;5263823;28;20032;-75
2024/01/04 09:56:54;;;;;;;26.70;4.55;;;;;;;9.80;100.00;100428.78;5263566;28;20450;-75
2024/01/04 09:59:24;;;;;;;34.33;4.38;;;;;;;9.82;100.00;100433.97;5264718;28;20023;-75
2024/01/04 10:01:58;;;;;;;38.47;6.93;;;;;;;9.80;100.00;100439.50;5263597;28;20027;-75
2024/01/04 10:04:28;;;;;;;33.88;4.53;;;;;;;9.79;100.00;100443.19;5267213;28;20047;-75
2024/01/04 10:07:06;;;;;;;28.08;4.53;;;;;;;9.72;100.00;100444.03;5261690;28;20036;-75
2024/01/04 10:09:47;;;;;;;39.45;7.20;;;;;;;9.79;100.00;100445.88;5261834;28;20704;-74
2024/01/04 10:12:17;;;;;;;41.55;5.38;;;;;;;9.78;100.00;100451.38;5266052;28;20028;-75
2024/01/04 10:14:48;;;;;;;36.63;6.00;;;;;;;9.69;100.00;100452.41;5259544;28;20039;-75
2024/01/04 10:17:19;;;;;;;53.55;7.07;;;;;;;9.74;100.00;100450.91;5266716;28;20036;-76
2024/01/04 10:19:50;;;;;;;32.08;6.70;;;;;;;9.71;100.00;100455.75;5266885;28;20047;-75
2024/01/04 10:22:22;;;;;;;29.90;6.07;;;;;;;9.76;100.00;100459.59;5260673;28;20059;-75
2024/01/04 10:24:54;;;;;;;33.60;6.35;;;;;;;9.72;100.00;100465.47;5261799;27;20102;-75
2024/01/04 10:27:27;;;;;;;37.58;5.03;;;;;;;9.78;100.00;100460.25;5265602;28;20664;-75
2024/01/04 10:30:04;;;;;;;30.77;5.90;;;;;;;9.78;100.00;100464.78;5261284;28;20067;-75
2024/01/04 10:32:35;;;;;;;31.55;6.13;;;;;;;9.82;100.00;100471.47;5261692;28;20032;-75
2024/01/04 10:35:06;;;;;;;69.57;25.73;;;;;;;9.85;100.00;100469.31;5260770;28;20389;-75
2024/01/04 10:37:37;;;;;;;42.90;11.15;;;;;;;9.89;100.00;100464.44;5266483;28;20028;-75
2024/01/04 10:40:09;;;;;;;79.57;31.80;;;;;;;9.91;100.00;100462.41;5261867;28;20023;-75
2024/01/04 10:42:53;;;;;;;47.33;20.33;;;;;;;10.27;100.00;100462.84;5261256;28;20027;-74
2024/01/04 10:45:27;;;;;;;34.60;11.23;;;;;;;10.55;100.00;100470.44;5261329;28;20026;-75
2024/01/04 10:47:58;;;;;;;31.58;6.57;;;;;;;10.53;100.00;100467.91;5260367;28;20530;-75
2024/01/04 10:50:30;;;;;;;40.47;6.65;;;;;;;10.62;100.00;100472.22;5261801;28;20107;-75
2024/01/04 10:53:03;;;;;;;30.52;6.93;;;;;;;10.68;100.00;100465.31;5263552;28;20024;-75
2024/01/04 10:55:36;;;;;;;35.67;6.72;;;;;;;10.74;100.00;100474.50;5262845;28;20036;-75
2024/01/04 10:58:07;;;;;;;36.13;5.53;;;;;;;10.77;100.00;100474.16;5263293;28;20027;-75
2024/01/04 11:00:37;;;;;;;35.35;5.45;;;;;;;10.75;100.00;100468.16;5262732;28;20024;-75
2024/01/04 11:03:09;;;;;;;29.75;4.90;;;;;;;10.71;100.00;100475.72;5263541;28;20032;-74
2024/01/04 11:05:41;;;;;;;32.50;6.05;;;;;;;10.67;100.00;100474.38;5261160;28;20107;-75
2024/01/04 11:08:13;;;;;;;23.45;4.40;;;;;;;10.71;100.00;100482.94;5262812;28;20497;-75
2024/01/04 11:10:45;;;;;;;27.92;4.72;;;;;;;10.67;100.00;100473.56;5257424;28;20020;-75
2024/01/04 11:13:16;;;;;;;23.67;4.53;;;;;;;10.65;100.00;100484.47;5261135;28;20028;-75
2024/01/04 11:15:50;;;;;;;34.58;4.70;;;;;;;10.66;100.00;100475.41;5264388;28;20088;-75
2024/01/04 11:18:29;;;;;;;21.57;4.60;;;;;;;10.77;100.00;100480.38;5264368;28;20032;-75
2024/01/04 11:21:19;;;;;;;23.52;4.60;;;;;;;10.78;100.00;100478.50;5258693;28;20032;-75
2024/01/04 11:24:02;;;;;;;26.77;10.05;;;;;;;10.81;100.00;100481.69;5263972;28;20039;-75
2024/01/04 11:26:38;;;;;;;72.47;36.20;;;;;;;10.67;100.00;100482.44;5263093;28;20023;-74
2024/01/04 11:29:10;;;;;;;149.13;63.60;;;;;;;10.69;100.00;100477.72;5263360;28;20035;-74
2024/01/04 11:31:42;;;;;;;139.95;64.43;;;;;;;10.79;100.00;100466.75;5262439;28;20023;-75
2024/01/04 11:34:13;;;;;;;85.88;43.95;;;;;;;10.80;100.00;100469.28;5262664;28;20114;-74